Data for 04/14/2009

Time Sea-Level Adjusted Pressure Absolute Pressure Temperature Relative Humidity Dew Point   
(mb) (inHg) (mb) (inHg) (C) (F) (%) (C) (F)
00:05 1013 29.91 842 24.86 5.2 41.3 54 -3.4 25.9
00:10 1013 29.91 842 24.86 5.2 41.3 54 -3.3 26.1
00:15 1013 29.91 842 24.86 5.2 41.3 55 -3.2 26.2
00:20 1013 29.91 842 24.86 5.1 41.2 56 -3 26.6
00:25 1013 29.91 842 24.86 5 41.1 57 -2.9 26.8
00:30 1013 29.91 842 24.86 5 41 63 -1.4 29.5
00:35 1013 29.91 842 24.86 4.5 40.1 67 -1 30.2
00:40 1013 29.91 842 24.86 4.4 40 64 -1.7 29
00:45 1013 29.91 842 24.86 4.5 40.1 58 -3 26.6
00:50 1013 29.91 842 24.86 4.4 39.9 58 -3.2 26.3
00:55 1013 29.91 842 24.86 4.3 39.7 58 -3.3 26.1
01:00 1013 29.91 842 24.86 4.2 39.6 58 -3.4 25.9
01:05 1013 29.91 842 24.86 4.2 39.5 58 -3.4 25.8
01:10 1013 29.91 842 24.86 4.1 39.3 59 -3.2 26.3
01:15 1013 29.91 842 24.86 4 39.2 59 -3.4 26
01:20 1013 29.91 842 24.86 4.1 39.4 58 -3.4 25.8
01:25 1013 29.91 842 24.86 4 39.1 60 -3.2 26.3
01:30 1013 29.91 842 24.86 3.9 39 60 -3.2 26.2
01:35 1013 29.91 842 24.86 3.9 39.1 60 -3 26.5
01:40 1012 29.88 842 24.86 4 39.2 61 -2.8 26.9
01:45 1012 29.88 842 24.86 3.8 38.8 62 -2.8 27
01:50 1012 29.88 841 24.83 3.5 38.3 64 -2.6 27.4
01:55 1012 29.88 841 24.83 3.2 37.7 66 -2.6 27.3
02:00 1012 29.88 841 24.83 2.9 37.3 69 -2.1 28.2
02:05 1012 29.88 841 24.83 2.6 36.7 73 -1.7 29
02:10 1012 29.88 841 24.83 2.2 36 75 -1.7 28.9
02:15 1012 29.88 841 24.83 2.1 35.8 75 -1.9 28.6
02:20 1012 29.88 841 24.83 2.1 35.8 75 -1.8 28.8
02:25 1012 29.88 841 24.83 2 35.6 75 -2 28.3
02:30 1012 29.88 841 24.83 2 35.6 74 -2.2 28.1
02:35 1012 29.88 841 24.83 1.9 35.5 74 -2.1 28.1
02:40 1012 29.88 841 24.83 1.8 35.2 76 -2.1 28.3
02:45 1012 29.88 841 24.83 1.7 35 77 -1.9 28.6
02:50 1012 29.88 841 24.83 1.6 34.9 78 -1.9 28.6
02:55 1012 29.88 841 24.83 1.5 34.8 77 -2.1 28.3
03:00 1011 29.85 841 24.83 1.4 34.6 78 -2 28.4
03:05 1011 29.85 841 24.83 1.5 34.8 77 -2.1 28.2
03:10 1011 29.85 841 24.83 1.7 35.1 76 -2 28.3
03:15 1011 29.85 840 24.81 1.8 35.3 75 -2.1 28.3
03:20 1011 29.85 841 24.83 2 35.5 74 -2.1 28.2
03:25 1011 29.85 841 24.83 2.2 36 73 -2.2 28
03:30 1011 29.85 840 24.81 2.4 36.3 71 -2.3 27.9
03:35 1011 29.85 840 24.81 2.5 36.5 72 -2 28.4
03:40 1011 29.85 841 24.83 2.3 36.2 76 -1.5 29.3
03:45 1011 29.85 841 24.83 1.6 34.8 79 -1.8 28.8
03:50 1011 29.85 840 24.81 1.3 34.4 78 -2 28.3
03:55 1011 29.85 841 24.83 1.6 34.8 78 -1.8 28.7
04:00 1011 29.85 841 24.83 1.5 34.7 80 -1.6 29
04:05 1011 29.85 841 24.83 1.3 34.4 79 -2 28.4
04:10 1011 29.85 841 24.83 1.6 34.8 77 -2 28.4
04:15 1011 29.85 841 24.83 1.6 34.9 79 -1.7 28.9
04:20 1011 29.85 841 24.83 1.6 34.8 78 -1.8 28.8
04:25 1011 29.85 841 24.83 1.7 35.1 78 -1.8 28.8
04:30 1011 29.85 841 24.83 1.8 35.2 79 -1.5 29.3
04:35 1011 29.85 840 24.81 1.4 34.5 80 -1.6 29.1
04:40 1011 29.85 841 24.83 1.5 34.8 78 -1.9 28.6
04:45 1011 29.85 841 24.83 1.7 35 78 -1.7 28.9
04:50 1011 29.85 841 24.83 1.7 35.1 77 -1.9 28.5
04:55 1011 29.85 840 24.81 1.6 34.9 82 -1.1 30
05:00 1011 29.85 840 24.81 1.1 34 85 -1.1 30.1
05:05 1011 29.85 840 24.81 0.9 33.7 86 -1.1 30
05:10 1011 29.85 840 24.81 0.7 33.3 88 -1 30.2
05:15 1011 29.85 840 24.81 0.4 32.8 89 -1.2 29.9
05:20 1011 29.85 840 24.81 0.6 33 89 -1 30.2
05:25 1011 29.85 840 24.81 0.6 33.1 88 -1.2 29.9
05:30 1011 29.85 840 24.81 0.4 32.6 88 -1.4 29.5
05:35 1011 29.85 840 24.81 0.4 32.6 88 -1.4 29.5
05:40 1011 29.85 840 24.81 0.3 32.5 87 -1.7 29
05:45 1011 29.85 840 24.81 0.3 32.5 86 -1.7 28.9
05:50 1011 29.85 840 24.81 0.2 32.4 86 -1.9 28.6
05:55 1011 29.85 840 24.81 0.4 32.7 87 -1.5 29.3
06:00 1011 29.85 840 24.81 0.3 32.6 87 -1.6 29.1
06:05 1011 29.85 840 24.81 0.4 32.8 88 -1.4 29.5
06:10 1011 29.85 840 24.81 0.3 32.6 86 -1.7 28.9
06:15 1011 29.85 840 24.81 0.5 32.9 83 -2 28.5
06:20 1011 29.85 840 24.81 0.6 33 83 -2 28.4
06:25 1011 29.85 840 24.81 0.6 33 83 -2 28.5
06:30 1011 29.85 840 24.81 0.4 32.8 86 -1.7 28.9
06:35 1011 29.85 840 24.81 0.2 32.3 88 -1.6 29
06:40 1011 29.85 840 24.81 -0.1 31.8 89 -1.7 28.9
06:45 1011 29.85 840 24.81 -0.2 31.6 90 -1.6 29.1
06:50 1011 29.85 840 24.81 -0.1 31.8 90 -1.5 29.3
06:55 1011 29.85 840 24.81 -0.4 31.3 91 -1.7 28.9
07:00 1011 29.85 840 24.81 -0.6 30.9 92 -1.8 28.8
07:05 1011 29.85 840 24.81 -0.7 30.8 93 -1.6 29.1
07:10 1011 29.85 840 24.81 -0.6 31 93 -1.5 29.3
07:15 1011 29.85 840 24.81 -0.6 31 93 -1.6 29.2
07:20 1011 29.85 840 24.81 -0.8 30.6 94 -1.6 29.1
07:25 1011 29.85 840 24.81 -0.8 30.5 94 -1.6 29.1
07:30 1011 29.85 840 24.81 -1 30.2 95 -1.7 29
07:35 1011 29.85 840 24.81 -0.9 30.3 95 -1.7 29
07:40 1011 29.85 840 24.81 -1 30.2 96 -1.6 29.1
07:45 1011 29.85 840 24.81 -0.9 30.5 96 -1.4 29.4
07:50 1011 29.85 840 24.81 -0.7 30.8 94 -1.4 29.4
07:55 1011 29.85 840 24.81 -0.7 30.7 93 -1.7 28.9
08:00 1011 29.85 840 24.81 -1 30.3 94 -1.8 28.8
08:05 1011 29.85 840 24.81 -1.2 29.9 96 -1.7 29
08:10 1011 29.85 840 24.81 -1 30.1 96 -1.6 29.1
08:15 1011 29.85 840 24.81 -1 30.1 95 -1.7 29
08:20 1011 29.85 840 24.81 -1.1 30 95 -1.8 28.8
08:25 1011 29.85 840 24.81 -1.3 29.7 96 -1.8 28.7
08:30 1011 29.85 840 24.81 -1.2 29.8 96 -1.7 28.9
08:35 1011 29.85 840 24.81 -1.1 30 97 -1.6 29.2
08:40 1011 29.85 840 24.81 -1 30.1 97 -1.5 29.3
08:45 1011 29.85 840 24.81 -1.1 30.1 96 -1.6 29.2
08:50 1011 29.85 840 24.81 -1.2 29.9 97 -1.7 29
08:55 1011 29.85 840 24.81 -1.2 29.8 97 -1.6 29.1
09:00 1011 29.85 840 24.81 -1.1 30 98 -1.4 29.4
09:05 1011 29.85 840 24.81 -0.8 30.6 96 -1.3 29.6
09:10 1011 29.85 840 24.81 -0.8 30.5 96 -1.4 29.6
09:15 1011 29.85 840 24.81 -0.8 30.6 96 -1.3 29.7
09:20 1011 29.85 840 24.81 -0.8 30.6 95 -1.4 29.4
09:25 1011 29.85 840 24.81 -1 30.2 95 -1.7 29
09:30 1011 29.85 840 24.81 -1 30.1 95 -1.7 29
09:35 1010 29.83 840 24.81 -0.9 30.5 95 -1.5 29.2
09:40 1011 29.85 840 24.81 -0.7 30.7 95 -1.5 29.3
09:45 1011 29.85 840 24.81 -0.8 30.6 95 -1.5 29.4
09:50 1011 29.85 840 24.81 -0.7 30.8 94 -1.5 29.3
09:55 1010 29.83 840 24.81 -0.9 30.4 95 -1.5 29.2
10:00 1010 29.83 840 24.81 -0.9 30.4 96 -1.5 29.3
10:05 1010 29.83 839 24.78 -0.7 30.7 96 -1.3 29.6
10:10 1010 29.83 839 24.78 -0.5 31.1 95 -1.3 29.7
10:15 1010 29.83 839 24.78 -0.5 31.1 95 -1.3 29.7
10:20 1010 29.83 839 24.78 -0.4 31.4 94 -1.3 29.7
10:25 1010 29.83 839 24.78 -0.3 31.5 93 -1.2 29.8
10:30 1010 29.83 839 24.78 -0.5 31.1 94 -1.4 29.5
10:35 1010 29.83 839 24.78 -0.4 31.3 93 -1.3 29.6
10:40 1010 29.83 839 24.78 -0.5 31.2 94 -1.4 29.5
10:45 1010 29.83 839 24.78 -0.6 30.9 94 -1.4 29.5
10:50 1010 29.83 839 24.78 -0.8 30.6 95 -1.5 29.2
10:55 1010 29.83 839 24.78 -0.7 30.7 94 -1.6 29.2
11:00 1010 29.83 839 24.78 -0.8 30.6 95 -1.5 29.4
11:05 1010 29.83 839 24.78 -0.7 30.7 95 -1.4 29.4
11:10 1010 29.83 839 24.78 -0.5 31 95 -1.2 29.8
11:15 1010 29.83 839 24.78 -0.4 31.3 95 -1 30.1
11:20 1010 29.83 839 24.78 -0.3 31.4 95 -1 30.2
11:25 1010 29.83 839 24.78 -0.3 31.5 95 -1 30.1
11:30 1010 29.83 839 24.78 -0.3 31.5 94 -1.1 30
11:35 1010 29.83 839 24.78 -0.2 31.6 94 -1.1 30
11:40 1010 29.83 839 24.78 -0.1 31.8 93 -1.1 30.1
11:45 1010 29.83 839 24.78 0 32 92 -1.1 30.1
11:50 1010 29.83 839 24.78 0.2 32.4 92 -0.9 30.4
11:55 1010 29.83 839 24.78 0.4 32.7 92 -0.8 30.6
12:00 1010 29.83 839 24.78 0.6 33.1 91 -0.7 30.8
12:05 1010 29.83 839 24.78 0.4 32.7 91 -1 30.2
12:10 1010 29.83 839 24.78 0.1 32.2 93 -0.9 30.3
12:15 1010 29.83 839 24.78 0.2 32.3 92 -1 30.3
12:20 1010 29.83 839 24.78 0.4 32.8 91 -0.8 30.5
12:25 1010 29.83 839 24.78 0.9 33.6 89 -0.7 30.8
12:30 1010 29.83 839 24.78 1.1 34.1 88 -0.6 30.9
12:35 1010 29.83 839 24.78 1 33.9 88 -0.8 30.6
12:40 1010 29.83 839 24.78 0.9 33.7 88 -0.9 30.4
12:45 1010 29.83 839 24.78 1.2 34.1 87 -0.7 30.7
12:50 1010 29.83 839 24.78 1.2 34.2 85 -0.9 30.3
12:55 1010 29.83 839 24.78 1.1 34.1 87 -0.8 30.6
13:00 1010 29.83 839 24.78 1.2 34.2 87 -0.6 30.9
13:05 1009 29.8 839 24.78 1.3 34.3 87 -0.7 30.8
13:10 1009 29.8 839 24.78 1.4 34.5 86 -0.8 30.6
13:15 1009 29.8 839 24.78 1.3 34.4 84 -1 30.1
13:20 1009 29.8 839 24.78 1.4 34.5 85 -0.9 30.4
13:25 1009 29.8 839 24.78 1.2 34.2 87 -0.7 30.7
13:30 1009 29.8 839 24.78 1.1 34 88 -0.7 30.7
13:35 1009 29.8 839 24.78 1.1 34.1 87 -0.8 30.5
13:40 1009 29.8 838 24.75 1.3 34.3 86 -0.8 30.5
13:45 1009 29.8 838 24.75 1.3 34.4 85 -1 30.2
13:50 1009 29.8 838 24.75 1.1 34 86 -0.9 30.3
13:55 1009 29.8 838 24.75 1.1 34 86 -1 30.3
14:00 1009 29.8 838 24.75 1.2 34.2 86 -0.9 30.3
14:05 1009 29.8 838 24.75 1.3 34.3 85 -1 30.3
14:10 1009 29.8 838 24.75 0.7 33.2 89 -1 30.3
14:15 1009 29.8 838 24.75 0.5 33 89 -1.1 30.1
14:20 1009 29.8 838 24.75 1 33.9 87 -1 30.3
14:25 1009 29.8 838 24.75 1 33.8 88 -0.8 30.6
14:30 1009 29.8 838 24.75 1.1 34 87 -0.8 30.6
14:35 1009 29.8 839 24.78 1.1 34 88 -0.7 30.7
14:40 1009 29.8 839 24.78 1.4 34.5 86 -0.7 30.7
14:45 1009 29.8 838 24.75 1.4 34.5 87 -0.5 31.1
14:50 1009 29.8 838 24.75 1.4 34.6 87 -0.4 31.2
14:55 1009 29.8 838 24.75 1.5 34.6 86 -0.7 30.8
15:00 1009 29.8 838 24.75 1.2 34.2 88 -0.6 31
15:05 1009 29.8 838 24.75 1 33.7 91 -0.4 31.3
15:10 1009 29.8 838 24.75 1 33.7 90 -0.5 31.1
15:15 1009 29.8 838 24.75 1.1 33.9 90 -0.4 31.3
15:20 1009 29.8 838 24.75 1.2 34.2 89 -0.4 31.3
15:25 1009 29.8 838 24.75 1.3 34.3 89 -0.4 31.3
15:30 1009 29.8 838 24.75 1.4 34.4 88 -0.4 31.3
15:35 1009 29.8 838 24.75 1.5 34.7 87 -0.4 31.3
15:40 1009 29.8 838 24.75 1.6 34.8 88 -0.2 31.7
15:45 1009 29.8 838 24.75 1.5 34.7 87 -0.4 31.3
15:50 1009 29.8 838 24.75 1.4 34.4 90 -0.1 31.8
15:55 1009 29.8 838 24.75 1 33.7 92 -0.2 31.7
16:00 1009 29.8 838 24.75 1.2 34.1 89 -0.4 31.3
16:05 1009 29.8 838 24.75 1.3 34.4 90 -0.2 31.6
16:10 1009 29.8 838 24.75 1.4 34.5 89 -0.2 31.6
16:15 1009 29.8 838 24.75 1.5 34.7 88 -0.2 31.6
16:20 1009 29.8 838 24.75 1.5 34.6 89 -0.2 31.6
16:25 1009 29.8 838 24.75 1.4 34.6 88 -0.3 31.5
16:30 1009 29.8 838 24.75 1.5 34.7 88 -0.3 31.4
16:35 1009 29.8 838 24.75 1.3 34.4 89 -0.2 31.6
16:40 1009 29.8 838 24.75 1.2 34.1 90 -0.3 31.5
16:45 1009 29.8 838 24.75 1.2 34.1 90 -0.3 31.4
16:50 1009 29.8 839 24.78 1.1 34 90 -0.3 31.5
16:55 1009 29.8 839 24.78 1.1 34 90 -0.3 31.4
17:00 1009 29.8 839 24.78 1.1 34 91 -0.2 31.6
17:05 1010 29.83 839 24.78 1.2 34.1 90 -0.3 31.4
17:10 1010 29.83 839 24.78 1.1 34 91 -0.2 31.6
17:15 1010 29.83 839 24.78 1 33.8 90 -0.5 31.2
17:20 1010 29.83 839 24.78 1.1 34 90 -0.3 31.4
17:25 1010 29.83 839 24.78 1.2 34.2 90 -0.2 31.6
17:30 1010 29.83 839 24.78 1.1 34.1 90 -0.3 31.4
17:35 1010 29.83 839 24.78 1.1 34 91 -0.1 31.8
17:40 1010 29.83 839 24.78 1 33.8 92 -0.2 31.7
17:45 1010 29.83 839 24.78 1 33.8 91 -0.3 31.5
17:50 1010 29.83 839 24.78 0.7 33.2 94 -0.2 31.6
17:55 1010 29.83 839 24.78 0.7 33.3 94 -0.1 31.7
18:00 1010 29.83 839 24.78 0.6 33.1 93 -0.3 31.4
18:05 1010 29.83 839 24.78 0.5 32.9 95 -0.2 31.6
18:10 1010 29.83 839 24.78 0.6 33.2 94 -0.2 31.7
18:15 1010 29.83 839 24.78 0.6 33.2 94 -0.3 31.5
18:20 1010 29.83 839 24.78 0.4 32.8 94 -0.4 31.3
18:25 1010 29.83 839 24.78 0.2 32.4 95 -0.5 31.1
18:30 1010 29.83 839 24.78 0.1 32.2 96 -0.5 31.1
18:35 1010 29.83 839 24.78 0.1 32.3 96 -0.4 31.3
18:40 1010 29.83 839 24.78 0.2 32.3 96 -0.5 31.1
18:45 1010 29.83 839 24.78 -0 32 97 -0.5 31.1
18:50 1010 29.83 839 24.78 -0 31.9 97 -0.5 31.1
18:55 1010 29.83 839 24.78 -0.2 31.7 97 -0.6 30.9
19:00 1010 29.83 839 24.78 -0.2 31.7 97 -0.6 30.9
19:05 1010 29.83 839 24.78 -0.2 31.6 97 -0.7 30.8
19:10 1010 29.83 839 24.78 -0.3 31.4 97 -0.7 30.7
19:15 1010 29.83 839 24.78 -0.3 31.5 97 -0.7 30.8
19:20 1010 29.83 839 24.78 -0.3 31.5 97 -0.7 30.8
19:25 1010 29.83 839 24.78 -0.3 31.4 97 -0.7 30.8
19:30 1010 29.83 839 24.78 -0.4 31.3 98 -0.6 30.8
19:35 1010 29.83 839 24.78 -0.3 31.5 98 -0.6 31
19:40 1010 29.83 839 24.78 -0.1 31.8 98 -0.4 31.3
19:45 1010 29.83 839 24.78 -0.1 31.8 98 -0.4 31.3
19:50 1010 29.83 839 24.78 -0.1 31.9 98 -0.4 31.3
19:55 1010 29.83 839 24.78 -0 31.9 98 -0.3 31.4
20:00 1010 29.83 839 24.78 -0 32 98 -0.3 31.5
20:05 1010 29.83 839 24.78 -0 31.9 98 -0.3 31.4
20:10 1010 29.83 839 24.78 -0 32 98 -0.3 31.5
20:15 1010 29.83 839 24.78 0 32.1 98 -0.3 31.5
20:20 1010 29.83 839 24.78 0.1 32.2 98 -0.2 31.7
20:25 1010 29.83 839 24.78 0 32 98 -0.3 31.4
20:30 1010 29.83 839 24.78 -0.1 31.8 98 -0.5 31.2
20:35 1010 29.83 839 24.78 -0.3 31.5 98 -0.5 31
20:40 1010 29.83 839 24.78 -0.3 31.5 98 -0.6 30.9
20:45 1010 29.83 839 24.78 -0.3 31.5 98 -0.6 31
20:50 1010 29.83 839 24.78 -0.3 31.5 98 -0.6 30.9
20:55 1010 29.83 839 24.78 -0.3 31.5 98 -0.6 30.9
21:00 1010 29.83 839 24.78 -0.4 31.3 98 -0.7 30.8
21:05 1010 29.83 840 24.81 -0.4 31.3 98 -0.7 30.8
21:10 1010 29.83 840 24.81 -0.4 31.2 98 -0.7 30.8
21:15 1010 29.83 840 24.81 -0.4 31.2 98 -0.7 30.7
21:20 1010 29.83 840 24.81 -0.4 31.2 98 -0.7 30.7
21:25 1010 29.83 840 24.81 -0.4 31.2 98 -0.7 30.8
21:30 1010 29.83 840 24.81 -0.4 31.2 98 -0.7 30.8
21:35 1010 29.83 840 24.81 -0.4 31.2 98 -0.7 30.8
21:40 1011 29.85 840 24.81 -0.5 31.2 98 -0.7 30.7
21:45 1011 29.85 840 24.81 -0.6 31 98 -0.8 30.5
21:50 1011 29.85 840 24.81 -0.6 31 98 -0.8 30.5
21:55 1011 29.85 840 24.81 -0.6 30.9 98 -0.9 30.4
22:00 1011 29.85 840 24.81 -0.7 30.8 98 -0.9 30.4
22:05 1011 29.85 840 24.81 -0.7 30.8 98 -0.9 30.3
22:10 1011 29.85 840 24.81 -0.7 30.8 98 -0.9 30.4
22:15 1011 29.85 840 24.81 -0.6 30.9 98 -0.9 30.5
22:20 1011 29.85 840 24.81 -0.6 30.9 98 -0.9 30.4
22:25 1010 29.83 840 24.81 -0.6 30.9 98 -0.8 30.5
22:30 1011 29.85 840 24.81 -0.6 30.9 98 -0.8 30.5
22:35 1011 29.85 840 24.81 -0.6 30.9 98 -0.9 30.5
22:40 1011 29.85 840 24.81 -0.6 30.9 98 -0.8 30.5
22:45 1010 29.83 840 24.81 -0.6 30.9 98 -0.9 30.5
22:50 1011 29.85 840 24.81 -0.7 30.8 98 -0.9 30.4
22:55 1011 29.85 840 24.81 -0.7 30.7 98 -0.9 30.3
23:00 1011 29.85 840 24.81 -0.7 30.7 98 -1 30.2
23:05 1010 29.83 840 24.81 -0.7 30.7 98 -1 30.3
23:10 1010 29.83 840 24.81 -0.7 30.7 98 -1 30.2
23:15 1010 29.83 840 24.81 -0.7 30.7 98 -1 30.3
23:20 1010 29.83 840 24.81 -0.7 30.8 98 -1 30.3
23:25 1010 29.83 839 24.78 -0.6 30.8 98 -1 30.2
23:30 1010 29.83 839 24.78 -0.7 30.8 98 -1 30.1
23:35 1010 29.83 839 24.78 -0.7 30.7 98 -1.1 30.1
23:40 1010 29.83 839 24.78 -0.7 30.7 97 -1.1 30
23:45 1010 29.83 840 24.81 -0.8 30.5 97 -1.2 29.9
23:50 1010 29.83 840 24.81 -0.9 30.4 97 -1.3 29.7
23:55 1010 29.83 840 24.81 -1 30.2 97 -1.4 29.5
24:00 1010 29.83 840 24.81 -1.1 30 98 -1.4 29.4